createdAt,value
2022-12-09T00:01:49.348Z,1.54
2022-12-09T00:04:17.664Z,1.50
2022-12-09T00:06:46.185Z,1.47
2022-12-09T00:09:15.751Z,1.44
2022-12-09T00:11:44.547Z,1.39
2022-12-09T00:14:13.087Z,1.36
2022-12-09T00:16:41.606Z,1.30
2022-12-09T00:19:10.126Z,1.24
2022-12-09T00:21:38.595Z,1.19
2022-12-09T00:24:10.597Z,1.15
2022-12-09T00:26:39.495Z,1.12
2022-12-09T00:29:08.096Z,1.07
2022-12-09T00:31:37.966Z,1.02
2022-12-09T00:34:11.018Z,0.95
2022-12-09T00:36:39.995Z,0.89
2022-12-09T00:39:12.305Z,0.83
2022-12-09T00:41:40.830Z,0.78
2022-12-09T00:44:10.126Z,0.71
2022-12-09T00:46:39.283Z,0.65
2022-12-09T00:49:07.472Z,0.59
2022-12-09T00:51:35.718Z,0.53
2022-12-09T00:54:04.345Z,0.48
2022-12-09T00:56:32.788Z,0.45
2022-12-09T00:59:01.265Z,0.42
2022-12-09T01:01:30.189Z,0.39
2022-12-09T01:03:58.956Z,0.34
2022-12-09T01:06:28.091Z,0.29
2022-12-09T01:08:56.430Z,0.25
2022-12-09T01:11:28.382Z,0.23
2022-12-09T01:14:01.226Z,0.21
2022-12-09T01:16:33.709Z,0.19
2022-12-09T01:19:31.343Z,0.17
2022-12-09T01:22:01.215Z,0.18
2022-12-09T01:24:29.526Z,0.19
2022-12-09T01:26:57.901Z,0.22
2022-12-09T01:29:26.085Z,0.24
2022-12-09T01:31:55.752Z,0.28
2022-12-09T01:34:24.159Z,0.30
2022-12-09T01:36:54.074Z,0.33
2022-12-09T01:39:22.329Z,0.37
2022-12-09T01:41:51.543Z,0.40
2022-12-09T01:44:25.366Z,0.45
2022-12-09T01:46:58.154Z,0.49
2022-12-09T01:49:36.773Z,0.53
2022-12-09T01:52:16.489Z,0.57
2022-12-09T01:54:49.063Z,0.60
2022-12-09T01:57:18.032Z,0.65
2022-12-09T01:59:46.564Z,0.68
2022-12-09T02:02:19.846Z,0.71
2022-12-09T02:04:50.801Z,0.74
2022-12-09T02:07:20.003Z,0.77
2022-12-09T02:09:53.479Z,0.80
2022-12-09T02:12:56.478Z,0.83
2022-12-09T02:15:48.104Z,0.85
2022-12-09T02:18:58.977Z,0.87
2022-12-09T02:21:42.760Z,0.88
2022-12-09T02:24:40.710Z,0.87
2022-12-09T02:27:18.530Z,0.87
2022-12-09T02:30:06.149Z,0.88
2022-12-09T02:32:36.491Z,0.89
2022-12-09T02:35:28.005Z,0.90
2022-12-09T02:38:12.406Z,0.91
2022-12-09T02:40:54.366Z,0.93
2022-12-09T02:43:26.836Z,0.94
2022-12-09T02:45:58.588Z,0.95
2022-12-09T02:48:34.018Z,0.95
2022-12-09T02:51:06.725Z,0.96
2022-12-09T02:53:38.039Z,0.97
2022-12-09T02:56:08.332Z,0.99
2022-12-09T02:58:36.731Z,1.01
2022-12-09T03:01:06.320Z,1.02
2022-12-09T03:03:37.173Z,1.03
2022-12-09T03:06:09.538Z,1.04
2022-12-09T03:08:40.587Z,1.04
2022-12-09T03:11:18.088Z,1.05
2022-12-09T03:13:52.788Z,1.05
2022-12-09T03:16:23.663Z,1.05
2022-12-09T03:19:14.094Z,1.04
2022-12-09T03:21:46.189Z,1.00
2022-12-09T03:24:20.146Z,0.99
2022-12-09T03:26:50.344Z,0.94
2022-12-09T03:29:22.538Z,0.91
2022-12-09T03:31:54.192Z,0.90
2022-12-09T03:34:33.483Z,0.90
2022-12-09T03:37:03.163Z,0.88
2022-12-09T03:39:35.944Z,0.88
2022-12-09T03:42:26.628Z,0.89
2022-12-09T03:45:10.332Z,0.89
2022-12-09T03:47:38.932Z,0.85
2022-12-09T03:50:09.620Z,0.84
2022-12-09T03:52:42.087Z,0.82
2022-12-09T03:55:34.137Z,0.78
2022-12-09T03:58:07.259Z,0.76
2022-12-09T04:00:40.117Z,0.76
2022-12-09T04:03:09.201Z,0.77
2022-12-09T04:05:39.138Z,0.77
2022-12-09T04:08:07.421Z,0.76
2022-12-09T04:10:35.627Z,0.77
2022-12-09T04:13:03.872Z,0.76
2022-12-09T04:15:32.205Z,0.74
2022-12-09T04:18:00.616Z,0.73
2022-12-09T04:20:28.779Z,0.73
2022-12-09T04:22:56.701Z,0.72
2022-12-09T04:25:24.896Z,0.71
2022-12-09T04:27:52.982Z,0.72
2022-12-09T04:30:21.929Z,0.72
2022-12-09T04:32:50.226Z,0.73
2022-12-09T04:35:18.494Z,0.74
2022-12-09T04:37:46.769Z,0.75
2022-12-09T04:40:21.240Z,0.77
2022-12-09T04:42:52.011Z,0.78
2022-12-09T04:45:20.260Z,0.80
2022-12-09T04:47:48.588Z,0.81
2022-12-09T04:50:17.773Z,0.82
2022-12-09T04:52:46.238Z,0.82
2022-12-09T04:55:15.165Z,0.84
2022-12-09T04:57:43.868Z,0.84
2022-12-09T05:00:13.247Z,0.84
2022-12-09T05:02:42.216Z,0.84
2022-12-09T05:05:10.632Z,0.83
2022-12-09T05:07:39.630Z,0.82
2022-12-09T05:10:08.527Z,0.80
2022-12-09T05:12:37.292Z,0.80
2022-12-09T05:15:06.386Z,0.78
2022-12-09T05:17:34.562Z,0.77
2022-12-09T05:20:04.322Z,0.77
2022-12-09T05:22:33.692Z,0.76
2022-12-09T05:25:01.879Z,0.75
2022-12-09T05:27:34.962Z,0.73
2022-12-09T05:30:04.236Z,0.71
2022-12-09T05:32:32.859Z,0.72
2022-12-09T05:35:01.004Z,0.71
2022-12-09T05:37:29.299Z,0.71
2022-12-09T05:39:59.341Z,0.70
2022-12-09T05:42:27.582Z,0.68
2022-12-09T05:44:56.476Z,0.68
2022-12-09T05:47:24.876Z,0.68
2022-12-09T05:49:53.325Z,0.69
2022-12-09T05:52:21.677Z,0.70
2022-12-09T05:54:49.892Z,0.72
2022-12-09T05:57:18.409Z,0.73
2022-12-09T05:59:46.490Z,0.74
2022-12-09T06:02:15.162Z,0.75
2022-12-09T06:04:43.802Z,0.76
2022-12-09T06:07:13.100Z,0.78
2022-12-09T06:09:41.258Z,0.80
2022-12-09T06:12:09.613Z,0.80
2022-12-09T06:14:38.709Z,0.80
2022-12-09T06:17:06.877Z,0.81
2022-12-09T06:19:35.133Z,0.82
2022-12-09T06:22:03.428Z,0.83
2022-12-09T06:24:31.958Z,0.84
2022-12-09T06:27:00.238Z,0.85
2022-12-09T06:29:28.790Z,0.85
2022-12-09T06:31:57.073Z,0.86
2022-12-09T06:34:27.012Z,0.88
2022-12-09T06:36:55.455Z,0.90
2022-12-09T06:39:24.010Z,0.92
2022-12-09T06:41:52.197Z,0.93
2022-12-09T06:44:23.850Z,0.93
2022-12-09T06:46:53.014Z,0.94
2022-12-09T06:49:21.452Z,0.95
2022-12-09T06:51:50.636Z,0.96
2022-12-09T06:54:18.807Z,0.97
2022-12-09T06:56:49.660Z,0.98
2022-12-09T06:59:18.260Z,0.99
2022-12-09T07:01:46.738Z,1.01
2022-12-09T07:04:15.809Z,1.00
2022-12-09T07:06:46.091Z,0.97
2022-12-09T07:09:17.762Z,0.97
2022-12-09T07:11:47.388Z,0.97
2022-12-09T07:14:18.405Z,0.98
2022-12-09T07:16:47.155Z,0.99
2022-12-09T07:19:21.345Z,0.97
2022-12-09T07:21:51.624Z,0.95
2022-12-09T07:24:21.222Z,0.94
2022-12-09T07:26:50.949Z,0.94
2022-12-09T07:29:20.065Z,0.94
2022-12-09T07:31:48.707Z,0.96
2022-12-09T07:34:17.627Z,0.99
2022-12-09T07:36:46.071Z,1.02
2022-12-09T07:39:16.559Z,1.07
2022-12-09T07:41:45.454Z,1.11
2022-12-09T07:44:13.704Z,1.15
2022-12-09T07:46:41.986Z,1.19
2022-12-09T07:49:11.199Z,1.22
2022-12-09T07:51:39.531Z,1.23
2022-12-09T07:54:11.128Z,1.24
2022-12-09T07:56:40.765Z,1.24
2022-12-09T07:59:10.390Z,1.26
2022-12-09T08:01:39.247Z,1.32
2022-12-09T08:04:08.341Z,1.37
2022-12-09T08:06:37.940Z,1.39
2022-12-09T08:09:11.308Z,1.42
2022-12-09T08:11:40.383Z,1.46
2022-12-09T08:14:12.498Z,1.48
2022-12-09T08:16:43.162Z,1.51
2022-12-09T08:19:12.285Z,1.56
2022-12-09T08:21:41.648Z,1.62
2022-12-09T08:24:12.010Z,1.67
2022-12-09T08:26:42.182Z,1.72
2022-12-09T08:29:13.170Z,1.76
2022-12-09T08:31:43.829Z,1.81
2022-12-09T08:34:13.175Z,1.84
2022-12-09T08:36:41.789Z,1.86
2022-12-09T08:39:11.659Z,1.86
2022-12-09T08:41:41.010Z,1.85
2022-12-09T08:44:18.697Z,1.82
2022-12-09T08:46:49.298Z,1.83
2022-12-09T08:49:20.307Z,1.86
2022-12-09T08:51:50.954Z,1.86
2022-12-09T08:54:19.892Z,1.86
2022-12-09T08:56:50.783Z,1.86
2022-12-09T08:59:19.376Z,1.88
2022-12-09T09:01:48.499Z,1.89
2022-12-09T09:04:18.259Z,1.89
2022-12-09T09:06:50.436Z,1.91
2022-12-09T09:09:21.292Z,1.93
2022-12-09T09:11:50.325Z,1.97
2022-12-09T09:14:19.334Z,1.98
2022-12-09T09:16:47.516Z,2.00
2022-12-09T09:19:19.646Z,2.03
2022-12-09T09:21:48.838Z,2.05
2022-12-09T09:24:19.845Z,2.09
2022-12-09T09:26:49.377Z,2.12
2022-12-09T09:29:21.474Z,2.13
2022-12-09T09:31:54.598Z,2.14
2022-12-09T09:34:25.093Z,2.14
2022-12-09T09:36:54.927Z,2.12
2022-12-09T09:39:23.942Z,2.11
2022-12-09T09:42:07.388Z,2.12
2022-12-09T09:44:41.297Z,2.14
2022-12-09T09:47:18.230Z,2.15
2022-12-09T09:50:23.045Z,2.17
2022-12-09T09:52:53.897Z,2.18
2022-12-09T09:55:35.398Z,2.18
2022-12-09T09:58:15.723Z,2.19
2022-12-09T10:00:56.667Z,2.20
2022-12-09T10:03:36.014Z,2.23
2022-12-09T10:06:42.730Z,2.26
2022-12-09T10:09:26.812Z,2.36
2022-12-09T10:12:13.239Z,2.46
2022-12-09T10:15:05.409Z,2.56
2022-12-09T10:18:18.324Z,2.62
2022-12-09T10:20:47.792Z,2.68
2022-12-09T10:23:17.294Z,2.72
2022-12-09T10:25:51.101Z,2.79
2022-12-09T10:28:43.132Z,2.87
2022-12-09T10:31:11.958Z,2.96
2022-12-09T10:33:41.059Z,3.03
2022-12-09T10:36:32.362Z,3.08
2022-12-09T10:39:05.306Z,3.12
2022-12-09T10:42:03.887Z,3.15
2022-12-09T10:44:32.753Z,3.18
2022-12-09T10:47:07.323Z,3.21
2022-12-09T10:49:36.994Z,3.24
2022-12-09T10:52:06.319Z,3.26
2022-12-09T10:54:39.393Z,3.27
2022-12-09T10:57:13.641Z,3.27
2022-12-09T10:59:56.097Z,3.25
2022-12-09T11:02:24.721Z,3.23
2022-12-09T11:04:53.634Z,3.25
2022-12-09T11:07:26.089Z,3.29
2022-12-09T11:09:54.474Z,3.31
2022-12-09T11:12:32.082Z,3.33
2022-12-09T11:15:22.018Z,3.34
2022-12-09T11:17:59.846Z,3.35
2022-12-09T11:20:31.657Z,3.37
2022-12-09T11:23:12.357Z,3.41
2022-12-09T11:25:58.636Z,3.46
2022-12-09T11:28:31.899Z,3.51
2022-12-09T11:31:31.758Z,3.55
2022-12-09T11:34:05.523Z,3.61
2022-12-09T11:36:44.054Z,3.66
2022-12-09T11:39:15.253Z,3.70
2022-12-09T11:42:16.428Z,3.73
2022-12-09T11:44:52.151Z,3.77
2022-12-09T11:47:26.489Z,3.81
2022-12-09T11:50:03.609Z,3.85
2022-12-09T11:52:32.040Z,3.89
2022-12-09T11:55:06.353Z,3.94
2022-12-09T11:57:41.707Z,3.97
2022-12-09T12:00:30.579Z,4.01
2022-12-09T12:03:17.796Z,4.05
2022-12-09T12:05:50.302Z,4.09
2022-12-09T12:08:28.133Z,4.13
2022-12-09T12:11:13.446Z,4.17
2022-12-09T12:13:52.868Z,4.32
2022-12-09T12:16:54.049Z,4.55
2022-12-09T12:19:36.012Z,4.83
2022-12-09T12:22:19.343Z,5.05
2022-12-09T12:25:13.986Z,5.21
2022-12-09T12:27:54.519Z,5.35
2022-12-09T12:30:28.059Z,5.47
2022-12-09T12:36:48.629Z,5.69
2022-12-09T12:39:38.523Z,5.77
2022-12-09T12:42:25.831Z,5.84
2022-12-09T12:45:31.123Z,5.90
2022-12-09T12:48:04.634Z,5.95
2022-12-09T12:50:52.849Z,6.05
2022-12-09T12:53:31.951Z,6.20
2022-12-09T12:56:08.310Z,6.33
2022-12-09T12:58:55.025Z,6.46
2022-12-09T13:02:01.899Z,6.62
2022-12-09T13:04:44.615Z,6.74
2022-12-09T13:07:38.295Z,6.82
2022-12-09T13:10:25.183Z,6.86
2022-12-09T13:12:56.791Z,6.90
2022-12-09T13:15:32.413Z,6.93
2022-12-09T13:18:24.551Z,7.00
2022-12-09T13:20:55.842Z,7.14
2022-12-09T13:23:33.252Z,7.25
2022-12-09T13:26:31.765Z,7.47
2022-12-09T13:29:35.385Z,7.78
2022-12-09T13:32:20.232Z,7.95
2022-12-09T13:34:55.559Z,7.98
2022-12-09T13:37:41.943Z,7.99
2022-12-09T13:40:36.768Z,8.00
2022-12-09T13:43:12.689Z,8.00
2022-12-09T13:45:43.870Z,7.99
2022-12-09T13:48:16.540Z,7.96
2022-12-09T13:50:57.266Z,7.91
2022-12-09T13:53:40.023Z,7.85
2022-12-09T13:56:16.732Z,7.79
2022-12-09T13:58:57.298Z,7.72
2022-12-09T14:01:50.066Z,7.63
2022-12-09T14:04:34.157Z,7.53
2022-12-09T14:07:14.682Z,7.44
2022-12-09T14:09:45.712Z,7.35
2022-12-09T14:12:34.087Z,7.27
2022-12-09T14:15:25.506Z,7.20
2022-12-09T14:18:06.108Z,7.14
2022-12-09T14:20:37.664Z,7.10
2022-12-09T14:23:09.863Z,7.09
2022-12-09T14:25:37.751Z,7.10
2022-12-09T14:28:21.117Z,7.13
2022-12-09T14:30:54.831Z,7.17
2022-12-09T14:33:34.838Z,7.19
2022-12-09T14:36:05.739Z,7.22
2022-12-09T14:39:23.792Z,7.23
2022-12-09T14:42:01.157Z,7.26
2022-12-09T14:44:48.170Z,7.29
2022-12-09T14:47:21.374Z,7.29
2022-12-09T14:49:51.059Z,7.28
2022-12-09T14:52:28.952Z,7.27
2022-12-09T14:55:00.655Z,7.25
2022-12-09T14:57:41.682Z,7.21
2022-12-09T15:00:27.070Z,7.18
2022-12-09T15:03:30.290Z,7.16
2022-12-09T15:05:59.377Z,7.15
2022-12-09T15:08:39.369Z,7.12
2022-12-09T15:11:36.662Z,7.11
2022-12-09T15:14:27.488Z,7.08
2022-12-09T15:16:57.085Z,7.03
2022-12-09T15:19:59.291Z,6.99
2022-12-09T15:22:23.631Z,6.94
2022-12-09T15:24:52.924Z,6.89
2022-12-09T15:27:22.350Z,6.83
2022-12-09T15:29:51.944Z,6.78
2022-12-09T15:32:30.554Z,6.73
2022-12-09T15:35:18.106Z,6.66
2022-12-09T15:37:47.232Z,6.59
2022-12-09T15:40:19.059Z,6.51
2022-12-09T15:42:51.413Z,6.44
2022-12-09T15:45:23.696Z,6.37
2022-12-09T15:47:51.611Z,6.29
2022-12-09T15:50:22.449Z,6.20
2022-12-09T15:53:00.042Z,6.12
2022-12-09T15:55:37.946Z,6.03
2022-12-09T15:58:09.254Z,5.95
2022-12-09T16:00:40.505Z,5.87
2022-12-09T16:03:08.650Z,5.79
2022-12-09T16:05:41.811Z,5.72
2022-12-09T16:08:11.019Z,5.64
2022-12-09T16:10:50.648Z,5.57
2022-12-09T16:13:21.327Z,5.50
2022-12-09T16:15:55.420Z,5.45
2022-12-09T16:18:35.197Z,5.42
2022-12-09T16:21:15.181Z,5.38
2022-12-09T16:23:45.879Z,5.33
2022-12-09T16:26:38.273Z,5.29
2022-12-09T16:29:15.238Z,5.24
2022-12-09T16:31:43.656Z,5.20
2022-12-09T16:34:22.447Z,5.18
2022-12-09T16:36:56.767Z,5.17
2022-12-09T16:39:24.735Z,5.19
2022-12-09T16:41:52.704Z,5.22
2022-12-09T16:44:22.620Z,5.26
2022-12-09T16:46:50.684Z,5.32
2022-12-09T16:49:18.660Z,5.39
2022-12-09T16:51:46.623Z,5.47
2022-12-09T16:54:20.073Z,5.57
2022-12-09T16:56:49.176Z,5.65
2022-12-09T16:59:17.297Z,5.72
2022-12-09T17:01:45.591Z,5.78
2022-12-09T17:04:22.556Z,5.84
2022-12-09T17:06:51.037Z,5.90
2022-12-09T17:09:19.524Z,5.94
2022-12-09T17:11:49.238Z,5.97
2022-12-09T17:14:18.178Z,6.00
2022-12-09T17:16:46.125Z,6.02
2022-12-09T17:19:14.409Z,6.03
2022-12-09T17:21:42.641Z,6.04
2022-12-09T17:24:11.946Z,6.03
2022-12-09T17:26:40.219Z,6.02
2022-12-09T17:29:08.283Z,6.01
2022-12-09T17:31:36.226Z,6.00
2022-12-09T17:34:04.562Z,6.00
2022-12-09T17:36:32.602Z,6.01
2022-12-09T17:39:02.799Z,6.01
2022-12-09T17:41:30.999Z,6.00
2022-12-09T17:44:01.026Z,5.98
2022-12-09T17:46:29.222Z,5.98
2022-12-09T17:48:59.945Z,5.97
2022-12-09T17:51:32.410Z,5.98
2022-12-09T17:54:04.654Z,5.99
2022-12-09T17:56:32.744Z,6.00
2022-12-09T17:59:07.416Z,6.00
2022-12-09T18:01:36.589Z,6.01
2022-12-09T18:04:09.475Z,6.02
2022-12-09T18:06:40.313Z,6.01
2022-12-09T18:09:10.588Z,6.02
2022-12-09T18:11:39.618Z,6.01
2022-12-09T18:14:08.013Z,5.99
2022-12-09T18:16:37.214Z,5.99
2022-12-09T18:19:12.846Z,5.98
2022-12-09T18:21:41.415Z,5.98
2022-12-09T18:24:09.771Z,6.01
2022-12-09T18:26:41.583Z,6.03
2022-12-09T18:29:11.884Z,6.05
2022-12-09T18:31:40.880Z,6.07
2022-12-09T18:34:08.841Z,6.08
2022-12-09T18:36:37.014Z,6.10
2022-12-09T18:39:05.498Z,6.12
2022-12-09T18:41:34.388Z,6.13
2022-12-09T18:44:05.020Z,6.14
2022-12-09T18:46:36.720Z,6.15
2022-12-09T18:49:07.827Z,6.16
2022-12-09T18:51:36.912Z,6.16
2022-12-09T18:54:05.774Z,6.16
2022-12-09T18:56:35.300Z,6.16
2022-12-09T18:59:07.117Z,6.16
2022-12-09T19:01:40.185Z,6.16
2022-12-09T19:04:15.318Z,6.16
2022-12-09T19:06:52.039Z,6.17
2022-12-09T19:09:30.099Z,6.17
2022-12-09T19:12:11.348Z,6.18
2022-12-09T19:14:46.504Z,6.18
2022-12-09T19:17:14.587Z,6.19
2022-12-09T19:19:42.648Z,6.20
2022-12-09T19:22:10.685Z,6.21
2022-12-09T19:24:42.991Z,6.21
2022-12-09T19:27:13.460Z,6.22
2022-12-09T19:29:41.795Z,6.22
2022-12-09T19:32:29.499Z,6.21
2022-12-09T19:34:57.706Z,6.21
2022-12-09T19:37:26.050Z,6.21
2022-12-09T19:39:54.156Z,6.21
2022-12-09T19:42:22.321Z,6.21
2022-12-09T19:45:12.137Z,6.20
2022-12-09T19:47:39.149Z,6.19
2022-12-09T19:50:07.675Z,6.16
2022-12-09T19:52:36.832Z,6.13
2022-12-09T19:55:05.318Z,6.11
2022-12-09T19:57:33.620Z,6.09
2022-12-09T20:00:01.666Z,6.08
2022-12-09T20:02:33.140Z,6.08
2022-12-09T20:05:01.199Z,6.08
2022-12-09T20:07:30.091Z,6.08
2022-12-09T20:09:58.359Z,6.07
2022-12-09T20:12:26.728Z,6.07
2022-12-09T20:14:54.822Z,6.06
2022-12-09T20:17:22.704Z,6.05
2022-12-09T20:19:50.747Z,6.05
2022-12-09T20:22:19.017Z,6.04
2022-12-09T20:24:47.084Z,6.03
2022-12-09T20:27:15.269Z,6.04
2022-12-09T20:29:43.234Z,6.03
2022-12-09T20:32:11.439Z,6.04
2022-12-09T20:34:40.042Z,6.03
2022-12-09T20:37:08.390Z,6.03
2022-12-09T20:39:36.441Z,6.01
2022-12-09T20:42:08.868Z,6.01
2022-12-09T20:44:39.291Z,6.00
2022-12-09T20:47:07.386Z,5.98
2022-12-09T20:49:35.798Z,5.96
2022-12-09T20:52:04.283Z,5.95
2022-12-09T20:54:33.893Z,5.93
2022-12-09T20:57:02.273Z,5.92
2022-12-09T20:59:30.232Z,5.90
2022-12-09T21:01:58.612Z,5.88
2022-12-09T21:04:26.887Z,5.87
2022-12-09T21:06:55.763Z,5.87
2022-12-09T21:09:27.460Z,5.87
2022-12-09T21:11:57.510Z,5.86
2022-12-09T21:14:31.136Z,5.86
2022-12-09T21:17:01.156Z,5.85
2022-12-09T21:19:30.726Z,5.86
2022-12-09T21:21:59.376Z,5.85
2022-12-09T21:24:27.641Z,5.84
2022-12-09T21:26:57.371Z,5.84
2022-12-09T21:29:31.184Z,5.84
2022-12-09T21:32:01.191Z,5.84
2022-12-09T21:34:29.523Z,5.87
2022-12-09T21:36:58.043Z,5.89
2022-12-09T21:39:28.157Z,5.90
2022-12-09T21:41:56.649Z,5.91
2022-12-09T21:44:25.521Z,5.94
2022-12-09T21:46:54.235Z,5.95
2022-12-09T21:49:22.595Z,5.95
2022-12-09T21:51:50.981Z,5.96
2022-12-09T21:54:19.637Z,5.98
2022-12-09T21:56:48.579Z,6.00
2022-12-09T21:59:16.937Z,6.02
2022-12-09T22:01:45.033Z,6.02
2022-12-09T22:04:16.432Z,6.03
2022-12-09T22:06:47.437Z,6.03
2022-12-09T22:09:17.042Z,6.03
2022-12-09T22:11:44.977Z,6.02
2022-12-09T22:14:13.144Z,6.01
2022-12-09T22:16:43.794Z,6.00
2022-12-09T22:19:17.359Z,5.98
2022-12-09T22:21:45.676Z,5.95
2022-12-09T22:24:15.899Z,5.95
2022-12-09T22:26:45.430Z,5.95
2022-12-09T22:29:16.954Z,5.95
2022-12-09T22:31:45.954Z,5.94
2022-12-09T22:34:19.178Z,5.93
2022-12-09T22:36:49.881Z,5.93
2022-12-09T22:39:21.981Z,5.91
2022-12-09T22:41:50.931Z,5.91
2022-12-09T22:44:20.138Z,5.90
2022-12-09T22:46:48.721Z,5.89
2022-12-09T22:49:17.555Z,5.88
2022-12-09T22:51:46.809Z,5.86
2022-12-09T22:54:14.983Z,5.84
2022-12-09T22:56:44.459Z,5.83
2022-12-09T22:59:13.885Z,5.82
2022-12-09T23:01:43.166Z,5.81
2022-12-09T23:04:12.480Z,5.78
2022-12-09T23:06:40.834Z,5.77
2022-12-09T23:09:18.957Z,5.75
2022-12-09T23:11:47.462Z,5.74
2022-12-09T23:14:16.250Z,5.73
2022-12-09T23:16:44.799Z,5.72
2022-12-09T23:19:13.785Z,5.72
2022-12-09T23:21:43.320Z,5.72
2022-12-09T23:24:15.718Z,5.71
2022-12-09T23:26:46.632Z,5.69
2022-12-09T23:29:16.535Z,5.68
2022-12-09T23:31:44.916Z,5.66
2022-12-09T23:34:14.527Z,5.65
2022-12-09T23:36:45.375Z,5.65
2022-12-09T23:39:16.112Z,5.65
2022-12-09T23:41:45.461Z,5.64
2022-12-09T23:44:16.609Z,5.62
2022-12-09T23:46:45.522Z,5.59
2022-12-09T23:49:14.739Z,5.59
2022-12-09T23:51:43.985Z,5.58
2022-12-09T23:54:14.870Z,5.59
2022-12-09T23:56:47.922Z,5.59
2022-12-09T23:59:17.592Z,5.60
